CheckWX is a tool to help pilots better visualize weather data.  It is not intended as a substitute for an official pre-flight weather briefing.

12:13:43 UTC

EPGD METAR
Gdańsk Lech Wałęsa Airport
Gdańsk, Poland
Current

14 mins ago

EPGD 251200Z 31006KT 9999 SCT042 06/M03 Q1009
Observed
Mar-25 @ 12:00 UTC
Wind
  • 310° at 6 KTS
Visibility
10,000+ meters
Flight Rules
VFR
Cloud Levels
  • Scattered at 4,200' AGL
Temperature
C / 43°F
Dewpoint
-3°C / 27°F
Humidity
53%
Altimeter
29.79" Hg
Pressure
1008.92 hPa
Previous

44 mins ago

EPGD 251130Z 31009KT CAVOK 06/M03 Q1009
Observed
Mar-25 @ 11:30 UTC
Wind
  • 310° at 9 KTS
Visibility
10,000+ meters
Flight Rules
VFR
Cloud Levels
  • Clear skies
Temperature
C / 43°F
Dewpoint
-3°C / 27°F
Humidity
53%
Altimeter
29.79" Hg
Pressure
1008.92 hPa
Previous

1 hour ago

EPGD 251100Z 32007KT 280V360 9999 FEW034 SCT045 06/M02 Q1009
Observed
Mar-25 @ 11:00 UTC
Wind
  • 320° at 7 KTS
Visibility
10,000+ meters
Flight Rules
VFR
Cloud Levels
  • Few at 3,400' AGL
  • Scattered at 4,500' AGL
Temperature
C / 43°F
Dewpoint
-2°C / 28°F
Humidity
57%
Altimeter
29.79" Hg
Pressure
1008.92 hPa